sensor_id;sensor_type;location;lat;lon;timestamp;temperature;humidity
77613;DHT22;66777;52.282;5.960;2023-06-14T18:30:26;24.30;44.30
77613;DHT22;66777;52.282;5.960;2023-06-14T18:32:52;24.20;44.40
77613;DHT22;66777;52.282;5.960;2023-06-14T18:35:18;24.10;44.80
77613;DHT22;66777;52.282;5.960;2023-06-14T18:37:44;24.10;45.00
77613;DHT22;66777;52.282;5.960;2023-06-14T18:40:10;24.10;44.90
77613;DHT22;66777;52.282;5.960;2023-06-14T18:42:36;24.10;45.10
77613;DHT22;66777;52.282;5.960;2023-06-14T18:45:02;24.10;45.00
77613;DHT22;66777;52.282;5.960;2023-06-14T18:47:28;24.10;45.00
77613;DHT22;66777;52.282;5.960;2023-06-14T18:49:53;24.00;45.10
77613;DHT22;66777;52.282;5.960;2023-06-14T18:52:19;24.00;45.10
77613;DHT22;66777;52.282;5.960;2023-06-14T18:54:44;24.00;45.20
77613;DHT22;66777;52.282;5.960;2023-06-14T18:57:11;23.90;45.40
77613;DHT22;66777;52.282;5.960;2023-06-14T18:59:37;23.90;45.40
77613;DHT22;66777;52.282;5.960;2023-06-14T19:02:03;23.80;45.50
77613;DHT22;66777;52.282;5.960;2023-06-14T19:04:29;23.80;45.70
77613;DHT22;66777;52.282;5.960;2023-06-14T19:06:55;23.60;45.80
77613;DHT22;66777;52.282;5.960;2023-06-14T19:09:21;23.60;45.90
77613;DHT22;66777;52.282;5.960;2023-06-14T19:11:49;23.60;46.00
77613;DHT22;66777;52.282;5.960;2023-06-14T19:14:15;23.50;46.10
77613;DHT22;66777;52.282;5.960;2023-06-14T19:16:41;23.40;46.20
77613;DHT22;66777;52.282;5.960;2023-06-14T19:19:07;23.40;46.30
77613;DHT22;66777;52.282;5.960;2023-06-14T19:21:32;23.20;46.50
77613;DHT22;66777;52.282;5.960;2023-06-14T19:23:59;23.20;46.70
77613;DHT22;66777;52.282;5.960;2023-06-14T19:26:25;23.00;46.80
77613;DHT22;66777;52.282;5.960;2023-06-14T19:28:52;23.00;46.90
77613;DHT22;66777;52.282;5.960;2023-06-14T19:31:18;23.10;46.60
77613;DHT22;66777;52.282;5.960;2023-06-14T19:33:44;23.10;46.80
77613;DHT22;66777;52.282;5.960;2023-06-14T19:36:09;22.90;47.00
77613;DHT22;66777;52.282;5.960;2023-06-14T19:38:35;22.80;47.20
77613;DHT22;66777;52.282;5.960;2023-06-14T19:41:01;22.70;47.30
77613;DHT22;66777;52.282;5.960;2023-06-14T19:43:27;22.60;47.50
77613;DHT22;66777;52.282;5.960;2023-06-14T19:45:52;22.50;47.50
77613;DHT22;66777;52.282;5.960;2023-06-14T19:48:18;22.50;47.70
77613;DHT22;66777;52.282;5.960;2023-06-14T19:50:43;22.50;47.70
77613;DHT22;66777;52.282;5.960;2023-06-14T19:53:10;22.40;47.80
77613;DHT22;66777;52.282;5.960;2023-06-14T19:55:36;22.30;47.80
77613;DHT22;66777;52.282;5.960;2023-06-14T19:58:03;22.20;48.00
77613;DHT22;66777;52.282;5.960;2023-06-14T20:00:29;22.20;48.10
77613;DHT22;66777;52.282;5.960;2023-06-14T20:02:56;22.10;48.20
77613;DHT22;66777;52.282;5.960;2023-06-14T20:05:22;22.00;48.30
77613;DHT22;66777;52.282;5.960;2023-06-14T20:07:47;22.00;48.40
77613;DHT22;66777;52.282;5.960;2023-06-14T20:10:13;21.90;48.50
77613;DHT22;66777;52.282;5.960;2023-06-14T20:12:39;21.90;48.70
77613;DHT22;66777;52.282;5.960;2023-06-14T20:15:07;21.80;48.80
77613;DHT22;66777;52.282;5.960;2023-06-14T20:17:33;21.70;49.00
77613;DHT22;66777;52.282;5.960;2023-06-14T20:19:58;21.70;49.10
77613;DHT22;66777;52.282;5.960;2023-06-14T20:22:24;21.60;49.20
77613;DHT22;66777;52.282;5.960;2023-06-14T20:24:49;21.50;49.30
77613;DHT22;66777;52.282;5.960;2023-06-14T20:27:15;21.50;49.30
77613;DHT22;66777;52.282;5.960;2023-06-14T20:29:40;21.40;49.40
77613;DHT22;66777;52.282;5.960;2023-06-14T20:32:06;21.40;49.50
77613;DHT22;66777;52.282;5.960;2023-06-14T20:34:32;21.40;49.70
77613;DHT22;66777;52.282;5.960;2023-06-14T20:36:58;21.30;49.80
77613;DHT22;66777;52.282;5.960;2023-06-14T20:39:23;21.20;50.00
77613;DHT22;66777;52.282;5.960;2023-06-14T20:41:49;21.10;50.10
77613;DHT22;66777;52.282;5.960;2023-06-14T20:44:14;21.10;50.00
77613;DHT22;66777;52.282;5.960;2023-06-14T20:46:41;21.10;50.00
77613;DHT22;66777;52.282;5.960;2023-06-14T20:49:11;21.10;50.20
77613;DHT22;66777;52.282;5.960;2023-06-14T20:51:37;21.10;50.40
77613;DHT22;66777;52.282;5.960;2023-06-14T20:54:03;21.00;50.40
77613;DHT22;66777;52.282;5.960;2023-06-14T20:56:29;20.90;50.50
77613;DHT22;66777;52.282;5.960;2023-06-14T20:58:54;20.90;50.60
77613;DHT22;66777;52.282;5.960;2023-06-14T21:01:22;20.90;50.70
77613;DHT22;66777;52.282;5.960;2023-06-14T21:03:48;20.90;50.70
77613;DHT22;66777;52.282;5.960;2023-06-14T21:06:13;20.90;50.80
77613;DHT22;66777;52.282;5.960;2023-06-14T21:08:40;20.80;50.90
77613;DHT22;66777;52.282;5.960;2023-06-14T21:11:06;20.80;50.90
77613;DHT22;66777;52.282;5.960;2023-06-14T21:13:32;20.80;51.10
77613;DHT22;66777;52.282;5.960;2023-06-14T21:15:57;20.70;51.10
77613;DHT22;66777;52.282;5.960;2023-06-14T21:18:23;20.70;51.20
77613;DHT22;66777;52.282;5.960;2023-06-14T21:20:48;20.60;51.50
77613;DHT22;66777;52.282;5.960;2023-06-14T21:23:15;20.60;51.60
77613;DHT22;66777;52.282;5.960;2023-06-14T21:25:41;20.50;51.80
77613;DHT22;66777;52.282;5.960;2023-06-14T21:28:07;20.50;51.90
77613;DHT22;66777;52.282;5.960;2023-06-14T21:30:34;20.40;52.00
77613;DHT22;66777;52.282;5.960;2023-06-14T21:33:00;20.30;52.10
77613;DHT22;66777;52.282;5.960;2023-06-14T21:35:26;20.30;52.20
77613;DHT22;66777;52.282;5.960;2023-06-14T21:37:51;20.30;52.20
77613;DHT22;66777;52.282;5.960;2023-06-14T21:40:17;20.30;52.40
77613;DHT22;66777;52.282;5.960;2023-06-14T21:42:43;20.20;52.60
77613;DHT22;66777;52.282;5.960;2023-06-14T21:45:10;20.10;52.60
77613;DHT22;66777;52.282;5.960;2023-06-14T21:47:36;20.10;52.60
77613;DHT22;66777;52.282;5.960;2023-06-14T21:50:03;20.00;52.80
77613;DHT22;66777;52.282;5.960;2023-06-14T21:52:28;20.00;53.40
77613;DHT22;66777;52.282;5.960;2023-06-14T21:54:54;20.00;53.50
77613;DHT22;66777;52.282;5.960;2023-06-14T21:57:21;19.90;53.90
77613;DHT22;66777;52.282;5.960;2023-06-14T21:59:47;19.90;54.10
77613;DHT22;66777;52.282;5.960;2023-06-14T22:02:12;19.70;54.30
77613;DHT22;66777;52.282;5.960;2023-06-14T22:04:38;19.70;54.70
77613;DHT22;66777;52.282;5.960;2023-06-14T22:07:04;19.50;54.80
77613;DHT22;66777;52.282;5.960;2023-06-14T22:09:32;19.50;54.80
77613;DHT22;66777;52.282;5.960;2023-06-14T22:11:58;19.50;54.60
77613;DHT22;66777;52.282;5.960;2023-06-14T22:14:27;19.50;54.50
77613;DHT22;66777;52.282;5.960;2023-06-14T22:16:55;19.50;54.20
77613;DHT22;66777;52.282;5.960;2023-06-14T22:19:24;19.50;54.20
77613;DHT22;66777;52.282;5.960;2023-06-14T22:21:49;19.60;54.00
77613;DHT22;66777;52.282;5.960;2023-06-14T22:24:16;19.60;54.00
77613;DHT22;66777;52.282;5.960;2023-06-14T22:26:43;19.60;54.00
77613;DHT22;66777;52.282;5.960;2023-06-14T22:29:18;19.50;54.10
77613;DHT22;66777;52.282;5.960;2023-06-14T22:31:45;19.50;54.20
77613;DHT22;66777;52.282;5.960;2023-06-14T22:34:10;19.50;54.40
77613;DHT22;66777;52.282;5.960;2023-06-14T22:36:36;19.50;54.50
77613;DHT22;66777;52.282;5.960;2023-06-14T22:39:06;19.50;54.50
77613;DHT22;66777;52.282;5.960;2023-06-14T22:41:33;19.50;54.60
77613;DHT22;66777;52.282;5.960;2023-06-14T22:43:59;19.50;54.80
77613;DHT22;66777;52.282;5.960;2023-06-14T22:46:25;19.40;55.00
77613;DHT22;66777;52.282;5.960;2023-06-14T22:48:51;19.40;55.40
77613;DHT22;66777;52.282;5.960;2023-06-14T22:51:19;19.40;55.50
77613;DHT22;66777;52.282;5.960;2023-06-14T22:53:45;19.30;55.90
77613;DHT22;66777;52.282;5.960;2023-06-14T22:56:13;19.30;56.20
77613;DHT22;66777;52.282;5.960;2023-06-14T22:58:38;19.30;56.20
77613;DHT22;66777;52.282;5.960;2023-06-14T23:01:07;19.30;56.20
77613;DHT22;66777;52.282;5.960;2023-06-14T23:03:35;19.30;56.40
77613;DHT22;66777;52.282;5.960;2023-06-14T23:06:02;19.20;56.70
77613;DHT22;66777;52.282;5.960;2023-06-14T23:08:29;19.20;56.80
77613;DHT22;66777;52.282;5.960;2023-06-14T23:10:55;19.20;56.90
77613;DHT22;66777;52.282;5.960;2023-06-14T23:13:20;19.20;57.10
77613;DHT22;66777;52.282;5.960;2023-06-14T23:15:46;19.10;57.10
77613;DHT22;66777;52.282;5.960;2023-06-14T23:18:12;19.10;57.40
77613;DHT22;66777;52.282;5.960;2023-06-14T23:20:38;19.10;57.60
77613;DHT22;66777;52.282;5.960;2023-06-14T23:23:04;19.10;57.60
77613;DHT22;66777;52.282;5.960;2023-06-14T23:25:29;19.10;57.70
77613;DHT22;66777;52.282;5.960;2023-06-14T23:28:00;19.10;57.80
77613;DHT22;66777;52.282;5.960;2023-06-14T23:30:28;19.10;58.00
77613;DHT22;66777;52.282;5.960;2023-06-14T23:32:59;19.10;58.00
77613;DHT22;66777;52.282;5.960;2023-06-14T23:35:25;19.00;58.20
77613;DHT22;66777;52.282;5.960;2023-06-14T23:37:51;19.00;58.40
77613;DHT22;66777;52.282;5.960;2023-06-14T23:40:19;19.00;58.50
77613;DHT22;66777;52.282;5.960;2023-06-14T23:42:45;18.90;58.70
77613;DHT22;66777;52.282;5.960;2023-06-14T23:45:10;18.90;58.90
77613;DHT22;66777;52.282;5.960;2023-06-14T23:47:37;18.80;59.10
77613;DHT22;66777;52.282;5.960;2023-06-14T23:50:02;18.90;59.30
77613;DHT22;66777;52.282;5.960;2023-06-14T23:52:29;18.90;59.30
77613;DHT22;66777;52.282;5.960;2023-06-14T23:54:56;18.80;59.40
77613;DHT22;66777;52.282;5.960;2023-06-14T23:57:23;18.80;59.60
77613;DHT22;66777;52.282;5.960;2023-06-14T23:59:49;18.80;59.70
